createdAt,value
2023-07-07T00:01:15.056Z,23.05
2023-07-07T00:04:22.930Z,22.96
2023-07-07T00:07:25.830Z,22.99
2023-07-07T00:10:28.630Z,22.98
2023-07-07T00:13:32.475Z,22.91
2023-07-07T00:16:39.016Z,22.93
2023-07-07T00:19:41.910Z,22.97
2023-07-07T00:22:45.244Z,23.02
2023-07-07T00:26:02.187Z,22.94
2023-07-07T00:29:06.813Z,22.93
2023-07-07T00:32:10.805Z,22.92
2023-07-07T00:35:13.663Z,22.85
2023-07-07T00:38:17.839Z,22.76
2023-07-07T00:41:20.734Z,22.76
2023-07-07T00:44:29.871Z,22.81
2023-07-07T00:47:34.693Z,22.78
2023-07-07T00:50:42.030Z,22.72
2023-07-07T00:53:49.232Z,22.70
2023-07-07T00:56:55.600Z,22.72
2023-07-07T00:59:58.521Z,22.71
2023-07-07T01:03:04.895Z,22.78
2023-07-07T01:06:12.099Z,22.88
2023-07-07T01:09:15.622Z,22.93
2023-07-07T01:12:18.472Z,22.85
2023-07-07T01:15:23.463Z,22.88
2023-07-07T01:18:53.677Z,22.91
2023-07-07T01:22:11.991Z,22.77
2023-07-07T01:25:27.631Z,22.75
2023-07-07T01:29:15.245Z,22.66
2023-07-07T01:32:22.759Z,22.48
2023-07-07T01:35:25.614Z,22.36
2023-07-07T01:38:46.766Z,22.42
2023-07-07T01:41:57.184Z,22.43
2023-07-07T01:45:23.430Z,22.44
2023-07-07T01:48:26.131Z,22.53
2023-07-07T01:51:37.814Z,22.39
2023-07-07T01:54:49.730Z,22.42
2023-07-07T01:57:58.110Z,22.41
2023-07-07T02:01:02.633Z,22.40
2023-07-07T02:04:05.524Z,22.41
2023-07-07T02:07:08.707Z,22.43
2023-07-07T02:10:12.363Z,22.29
2023-07-07T02:13:15.223Z,22.21
2023-07-07T02:16:18.193Z,22.17
2023-07-07T02:19:21.293Z,22.09
2023-07-07T02:22:24.598Z,22.07
2023-07-07T02:25:27.844Z,22.14
2023-07-07T02:28:30.431Z,22.12
2023-07-07T02:31:33.588Z,22.05
2023-07-07T02:34:36.819Z,22.04
2023-07-07T02:37:40.382Z,22.11
2023-07-07T02:40:43.736Z,22.05
2023-07-07T02:43:47.032Z,21.96
2023-07-07T02:46:50.900Z,22.13
2023-07-07T02:49:54.038Z,22.09
2023-07-07T02:52:56.633Z,22.01
2023-07-07T02:56:00.611Z,21.95
2023-07-07T02:59:03.142Z,21.99
2023-07-07T03:02:07.275Z,22.04
2023-07-07T03:05:10.560Z,22.03
2023-07-07T03:08:14.565Z,21.97
2023-07-07T03:11:20.087Z,21.93
2023-07-07T03:14:23.443Z,21.93
2023-07-07T03:17:27.417Z,21.94
2023-07-07T03:20:30.707Z,21.93
2023-07-07T03:23:34.372Z,21.90
2023-07-07T03:26:39.125Z,22.00
2023-07-07T03:29:41.944Z,22.05
2023-07-07T03:32:45.887Z,22.03
2023-07-07T03:35:52.092Z,22.16
2023-07-07T03:38:58.947Z,22.09
2023-07-07T03:42:02.317Z,21.97
2023-07-07T03:45:07.845Z,21.96
2023-07-07T03:48:11.228Z,22.03
2023-07-07T03:51:17.183Z,22.06
2023-07-07T03:54:19.902Z,22.10
2023-07-07T03:57:23.257Z,22.15
2023-07-07T04:00:25.693Z,22.05
2023-07-07T04:03:28.881Z,22.05
2023-07-07T04:06:32.678Z,22.19
2023-07-07T04:09:35.837Z,22.23
2023-07-07T04:12:39.243Z,22.34
2023-07-07T04:15:42.360Z,22.32
2023-07-07T04:18:46.329Z,22.21
2023-07-07T04:21:49.833Z,22.15
2023-07-07T04:25:13.722Z,22.12
2023-07-07T04:28:17.092Z,22.22
2023-07-07T04:31:21.994Z,22.28
2023-07-07T04:34:25.171Z,22.14
2023-07-07T04:37:27.674Z,22.16
2023-07-07T04:40:34.874Z,22.31
2023-07-07T04:43:41.315Z,22.27
2023-07-07T04:46:44.452Z,22.31
2023-07-07T04:49:46.965Z,22.44
2023-07-07T04:52:49.991Z,22.61
2023-07-07T04:55:52.583Z,22.52
2023-07-07T04:58:57.903Z,22.50
2023-07-07T05:02:00.484Z,22.76
2023-07-07T05:05:03.881Z,22.69
2023-07-07T05:08:09.533Z,22.88
2023-07-07T05:11:19.087Z,22.86
2023-07-07T05:14:21.690Z,22.85
2023-07-07T05:17:24.870Z,22.92
2023-07-07T05:20:27.675Z,23.06
2023-07-07T05:23:30.875Z,23.06
2023-07-07T05:26:33.386Z,23.21
2023-07-07T05:29:36.371Z,23.09
2023-07-07T05:32:38.940Z,23.17
2023-07-07T05:35:54.486Z,23.17
2023-07-07T05:38:57.055Z,23.06
2023-07-07T05:42:00.253Z,23.15
2023-07-07T05:45:02.771Z,23.22
2023-07-07T05:48:07.191Z,23.20
2023-07-07T05:51:13.782Z,23.28
2023-07-07T05:54:16.993Z,23.36
2023-07-07T05:57:19.469Z,23.34
2023-07-07T06:00:23.085Z,23.31
2023-07-07T06:03:26.046Z,23.35
2023-07-07T06:06:28.903Z,23.33
2023-07-07T06:09:31.839Z,23.46
2023-07-07T06:12:36.892Z,23.67
2023-07-07T06:15:39.740Z,23.72
2023-07-07T06:18:42.563Z,24.00
2023-07-07T06:21:48.195Z,24.08
2023-07-07T06:24:53.406Z,24.16
2023-07-07T06:27:56.523Z,24.34
2023-07-07T06:30:59.494Z,24.57
2023-07-07T06:34:02.785Z,24.87
2023-07-07T06:37:06.638Z,25.26
2023-07-07T06:40:10.324Z,25.59
2023-07-07T06:43:13.990Z,25.72
2023-07-07T06:46:19.476Z,25.89
2023-07-07T06:49:22.299Z,26.11
2023-07-07T06:52:25.121Z,26.16
2023-07-07T06:55:28.114Z,26.18
2023-07-07T06:58:31.567Z,26.25
2023-07-07T07:01:35.117Z,26.39
2023-07-07T07:04:38.240Z,26.46
2023-07-07T07:07:41.085Z,26.63
2023-07-07T07:10:43.914Z,26.70
2023-07-07T07:13:47.034Z,26.86
2023-07-07T07:16:50.110Z,26.80
2023-07-07T07:19:53.838Z,26.86
2023-07-07T07:22:56.714Z,26.79
2023-07-07T07:25:59.689Z,26.84
2023-07-07T07:29:02.772Z,26.89
2023-07-07T07:32:06.148Z,27.04
2023-07-07T07:35:11.736Z,27.47
2023-07-07T07:38:21.359Z,27.90
2023-07-07T07:41:24.272Z,28.35
2023-07-07T07:44:27.220Z,28.63
2023-07-07T07:47:30.227Z,28.49
2023-07-07T07:50:34.535Z,28.44
2023-07-07T07:57:24.069Z,29.17
2023-07-07T08:00:26.988Z,29.48
2023-07-07T08:03:30.124Z,29.59
2023-07-07T08:06:33.273Z,29.87
2023-07-07T08:09:36.499Z,30.11
2023-07-07T08:12:39.208Z,30.58
2023-07-07T08:15:43.053Z,31.01
2023-07-07T08:18:45.681Z,31.33
2023-07-07T08:21:49.247Z,31.61
2023-07-07T08:24:55.056Z,31.67
2023-07-07T08:31:03.781Z,32.57
2023-07-07T08:34:06.997Z,32.61
2023-07-07T08:37:11.703Z,33.00
2023-07-07T08:40:19.957Z,33.28
2023-07-07T08:43:24.949Z,33.96
2023-07-07T08:47:05.342Z,34.26
2023-07-07T08:50:34.032Z,34.37
2023-07-07T08:54:12.976Z,34.17
2023-07-07T08:57:19.096Z,33.99
2023-07-07T09:00:36.677Z,34.51
2023-07-07T09:04:00.324Z,35.40
2023-07-07T09:07:40.041Z,36.15
2023-07-07T09:10:45.350Z,36.90
2023-07-07T09:13:52.749Z,37.26
2023-07-07T09:17:04.590Z,37.20
2023-07-07T09:20:10.125Z,36.65
2023-07-07T09:23:23.093Z,36.76
2023-07-07T09:26:36.945Z,37.45
2023-07-07T09:29:40.540Z,38.13
2023-07-07T09:32:43.662Z,38.81
2023-07-07T09:39:29.475Z,38.77
2023-07-07T09:42:50.404Z,39.21
2023-07-07T09:46:22.772Z,39.87
2023-07-07T09:49:33.328Z,40.18
2023-07-07T09:52:37.362Z,40.53
2023-07-07T09:55:42.166Z,39.58
2023-07-07T09:58:59.219Z,39.29
2023-07-07T10:02:03.215Z,39.11
2023-07-07T10:05:09.062Z,38.22
2023-07-07T10:08:14.530Z,37.59
2023-07-07T10:11:54.877Z,36.64
2023-07-07T10:14:47.507Z,35.87
2023-07-07T10:17:58.262Z,35.43
2023-07-07T10:21:07.687Z,35.42
2023-07-07T10:24:15.367Z,36.18
2023-07-07T10:27:24.834Z,36.97
2023-07-07T10:30:27.967Z,37.91
2023-07-07T10:33:30.929Z,38.10
2023-07-07T10:36:34.496Z,37.38
2023-07-07T10:39:37.021Z,36.99
2023-07-07T10:42:40.158Z,37.55
2023-07-07T10:45:46.876Z,37.75
2023-07-07T10:48:53.568Z,37.76
2023-07-07T10:53:21.692Z,37.29
2023-07-07T10:56:13.986Z,36.27
2023-07-07T10:59:28.557Z,35.21
2023-07-07T11:02:46.761Z,34.78
2023-07-07T11:06:08.646Z,35.24
2023-07-07T11:09:35.647Z,35.24
2023-07-07T11:12:40.880Z,35.07
2023-07-07T11:15:59.242Z,34.74
2023-07-07T11:19:11.847Z,35.18
2023-07-07T11:22:39.538Z,36.28
2023-07-07T11:26:00.698Z,37.13
2023-07-07T11:29:06.582Z,37.26
2023-07-07T11:32:27.501Z,36.53
2023-07-07T11:35:51.277Z,35.47
2023-07-07T11:38:59.841Z,34.72
2023-07-07T11:42:22.261Z,34.87
2023-07-07T11:45:24.718Z,35.30
2023-07-07T11:48:44.906Z,34.84
2023-07-07T11:51:57.142Z,34.42
2023-07-07T11:55:29.537Z,34.36
2023-07-07T11:58:53.613Z,34.60
2023-07-07T12:01:58.620Z,35.05
2023-07-07T12:05:03.002Z,35.38
2023-07-07T12:08:21.893Z,35.14
2023-07-07T12:11:28.881Z,35.35
2023-07-07T12:14:56.290Z,35.87
2023-07-07T12:18:38.356Z,36.39
2023-07-07T12:21:42.928Z,36.74
2023-07-07T12:24:59.382Z,36.81
2023-07-07T12:28:02.922Z,36.82
2023-07-07T12:31:06.763Z,36.04
2023-07-07T12:34:38.200Z,35.41
2023-07-07T12:37:41.661Z,35.06
2023-07-07T12:40:45.930Z,35.04
2023-07-07T12:43:53.078Z,35.32
2023-07-07T12:46:56.484Z,35.35
2023-07-07T12:50:02.617Z,35.40
2023-07-07T12:53:12.829Z,35.67
2023-07-07T12:56:22.134Z,35.74
2023-07-07T12:59:39.364Z,35.66
2023-07-07T13:03:22.816Z,35.72
2023-07-07T13:06:36.104Z,35.78
2023-07-07T13:09:51.620Z,35.84
2023-07-07T13:12:55.218Z,35.77
2023-07-07T13:15:58.460Z,35.55
2023-07-07T13:19:03.587Z,35.66
2023-07-07T13:22:31.218Z,35.52
2023-07-07T13:25:37.047Z,35.40
2023-07-07T13:28:41.313Z,35.22
2023-07-07T13:31:45.006Z,35.12
2023-07-07T13:34:47.854Z,34.83
2023-07-07T13:37:51.254Z,34.69
2023-07-07T13:40:55.521Z,34.54
2023-07-07T13:43:58.473Z,34.41
2023-07-07T13:47:07.658Z,34.22
2023-07-07T13:50:23.962Z,34.17
2023-07-07T13:53:27.098Z,34.22
2023-07-07T13:56:30.811Z,34.18
2023-07-07T13:59:34.183Z,34.09
2023-07-07T14:02:41.855Z,34.03
2023-07-07T14:05:45.820Z,34.07
2023-07-07T14:08:51.474Z,33.96
2023-07-07T14:11:57.239Z,33.84
2023-07-07T14:15:00.193Z,33.77
2023-07-07T14:18:07.911Z,33.51
2023-07-07T14:21:15.562Z,33.16
2023-07-07T14:24:32.003Z,32.98
2023-07-07T14:27:35.313Z,32.95
2023-07-07T14:30:38.207Z,32.95
2023-07-07T14:33:48.773Z,32.80
2023-07-07T14:36:51.670Z,32.76
2023-07-07T14:39:59.759Z,32.65
2023-07-07T14:43:17.868Z,32.62
2023-07-07T14:46:26.674Z,32.36
2023-07-07T14:49:30.148Z,32.34
2023-07-07T14:52:39.013Z,32.24
2023-07-07T14:55:48.938Z,32.22
2023-07-07T14:58:57.576Z,32.24
2023-07-07T15:02:21.503Z,31.94
2023-07-07T15:05:31.710Z,31.76
2023-07-07T15:08:36.779Z,31.72
2023-07-07T15:11:40.973Z,31.56
2023-07-07T15:14:43.937Z,31.41
2023-07-07T15:17:46.775Z,31.17
2023-07-07T15:20:50.092Z,31.31
2023-07-07T15:23:53.270Z,31.16
2023-07-07T15:26:56.213Z,30.93
2023-07-07T15:29:59.478Z,30.76
2023-07-07T15:33:02.340Z,30.60
2023-07-07T15:36:05.341Z,30.63
2023-07-07T15:39:12.190Z,30.52
2023-07-07T15:42:15.678Z,30.43
2023-07-07T15:45:19.282Z,30.23
2023-07-07T15:48:23.358Z,30.21
2023-07-07T15:51:31.260Z,30.10
2023-07-07T15:54:34.453Z,30.19
2023-07-07T15:57:37.289Z,30.23
2023-07-07T16:00:45.574Z,30.24
2023-07-07T16:03:51.430Z,30.21
2023-07-07T16:06:55.662Z,30.15
2023-07-07T16:09:58.576Z,29.99
2023-07-07T16:13:01.462Z,30.03
2023-07-07T16:16:04.569Z,29.82
2023-07-07T16:19:13.048Z,29.79
2023-07-07T16:22:17.831Z,29.72
2023-07-07T16:25:21.983Z,29.77
2023-07-07T16:28:24.875Z,29.62
2023-07-07T16:31:29.473Z,29.51
2023-07-07T16:34:32.410Z,29.35
2023-07-07T16:37:37.695Z,29.38
2023-07-07T16:40:45.111Z,29.35
2023-07-07T16:43:48.610Z,29.28
2023-07-07T16:46:51.552Z,29.09
2023-07-07T16:49:54.824Z,29.07
2023-07-07T16:52:59.461Z,29.09
2023-07-07T16:56:03.829Z,28.99
2023-07-07T16:59:17.913Z,29.01
2023-07-07T17:02:20.852Z,29.09
2023-07-07T17:05:24.403Z,28.89
2023-07-07T17:08:28.022Z,28.74
2023-07-07T17:11:33.131Z,28.77
2023-07-07T17:14:36.579Z,28.66
2023-07-07T17:17:42.159Z,28.52
2023-07-07T17:20:45.420Z,28.45
2023-07-07T17:23:49.570Z,28.43
2023-07-07T17:26:54.153Z,28.40
2023-07-07T17:29:57.337Z,28.31
2023-07-07T17:33:00.320Z,28.15
2023-07-07T17:36:10.485Z,27.99
2023-07-07T17:39:15.508Z,27.95
2023-07-07T17:42:19.185Z,27.89
2023-07-07T17:45:25.161Z,27.84
2023-07-07T17:48:28.196Z,27.79
2023-07-07T17:51:31.221Z,27.79
2023-07-07T17:54:34.143Z,27.75
2023-07-07T17:57:37.232Z,27.71
2023-07-07T18:00:46.733Z,27.72
2023-07-07T18:03:50.600Z,27.65
2023-07-07T18:06:53.548Z,27.67
2023-07-07T18:09:56.696Z,27.50
2023-07-07T18:12:59.333Z,27.48
2023-07-07T18:16:03.058Z,27.41
2023-07-07T18:19:36.250Z,27.40
2023-07-07T18:22:35.247Z,27.41
2023-07-07T18:25:38.336Z,27.31
2023-07-07T18:28:44.644Z,27.25
2023-07-07T18:31:47.537Z,27.18
2023-07-07T18:34:50.687Z,27.13
2023-07-07T18:37:55.684Z,27.03
2023-07-07T18:40:59.051Z,27.04
2023-07-07T18:44:01.759Z,26.92
2023-07-07T18:47:13.533Z,26.85
2023-07-07T18:50:29.973Z,26.79
2023-07-07T18:53:33.298Z,26.76
2023-07-07T18:56:36.896Z,26.72
2023-07-07T18:59:40.126Z,26.65
2023-07-07T19:02:42.728Z,26.57
2023-07-07T19:05:46.818Z,26.49
2023-07-07T19:08:49.498Z,26.46
2023-07-07T19:11:54.470Z,26.38
2023-07-07T19:14:57.026Z,26.34
2023-07-07T19:18:04.946Z,26.22
2023-07-07T19:21:16.698Z,26.18
2023-07-07T19:24:21.038Z,26.06
2023-07-07T19:27:23.625Z,26.02
2023-07-07T19:30:26.830Z,25.91
2023-07-07T19:33:29.513Z,25.84
2023-07-07T19:36:37.388Z,25.94
2023-07-07T19:39:42.214Z,25.75
2023-07-07T19:42:45.464Z,25.64
2023-07-07T19:45:58.451Z,25.61
2023-07-07T19:49:11.178Z,25.60
2023-07-07T19:52:18.561Z,25.54
2023-07-07T19:55:21.841Z,25.47
2023-07-07T19:58:25.077Z,25.41
2023-07-07T20:01:31.691Z,25.36
2023-07-07T20:04:34.752Z,25.31
2023-07-07T20:07:37.809Z,25.30
2023-07-07T20:10:42.644Z,25.26
2023-07-07T20:13:46.506Z,25.18
2023-07-07T20:16:53.980Z,25.15
2023-07-07T20:19:56.936Z,25.03
2023-07-07T20:22:59.870Z,24.99
2023-07-07T20:26:02.794Z,24.91
2023-07-07T20:29:05.630Z,24.85
2023-07-07T20:32:15.662Z,24.82
2023-07-07T20:35:24.910Z,24.78
2023-07-07T20:38:27.934Z,24.67
2023-07-07T20:41:30.818Z,24.67
2023-07-07T20:44:33.657Z,24.66
2023-07-07T20:47:36.769Z,24.65
2023-07-07T20:50:47.378Z,24.61
2023-07-07T20:53:50.343Z,24.49
2023-07-07T20:56:53.172Z,24.47
2023-07-07T20:59:56.495Z,24.40
2023-07-07T21:03:00.174Z,24.36
2023-07-07T21:06:06.707Z,24.34
2023-07-07T21:09:12.347Z,24.29
2023-07-07T21:12:15.177Z,24.28
2023-07-07T21:15:18.293Z,24.30
2023-07-07T21:18:21.140Z,24.23
2023-07-07T21:21:27.879Z,24.17
2023-07-07T21:24:30.739Z,24.17
2023-07-07T21:27:34.192Z,24.09
2023-07-07T21:30:37.091Z,24.10
2023-07-07T21:33:40.310Z,24.07
2023-07-07T21:36:43.301Z,24.01
2023-07-07T21:39:46.798Z,23.99
2023-07-07T21:42:50.324Z,24.00
2023-07-07T21:45:53.226Z,23.91
2023-07-07T21:48:56.114Z,23.89
2023-07-07T21:52:03.987Z,23.86
2023-07-07T21:55:07.289Z,23.86
2023-07-07T21:58:10.361Z,23.82
2023-07-07T22:01:14.048Z,23.77
2023-07-07T22:04:17.654Z,23.77
2023-07-07T22:07:21.295Z,23.80
2023-07-07T22:10:39.728Z,23.80
2023-07-07T22:13:42.684Z,23.82
2023-07-07T22:16:46.075Z,23.80
2023-07-07T22:19:48.700Z,23.71
2023-07-07T22:22:51.837Z,23.68
2023-07-07T22:25:54.576Z,23.57
2023-07-07T22:28:57.758Z,23.54
2023-07-07T22:32:00.712Z,23.55
2023-07-07T22:35:04.460Z,23.47
2023-07-07T22:38:16.609Z,23.45
2023-07-07T22:41:28.043Z,23.44
2023-07-07T22:44:30.619Z,23.43
2023-07-07T22:47:33.795Z,23.42
2023-07-07T22:50:36.340Z,23.44
2023-07-07T22:53:39.570Z,23.41
2023-07-07T22:56:42.189Z,23.42
2023-07-07T22:59:45.401Z,23.36
2023-07-07T23:02:48.103Z,23.30
2023-07-07T23:05:51.523Z,23.28
2023-07-07T23:08:57.832Z,23.26
2023-07-07T23:12:01.101Z,23.24
2023-07-07T23:15:04.487Z,23.23
2023-07-07T23:18:13.772Z,23.21
2023-07-07T23:21:18.271Z,23.19
2023-07-07T23:24:24.727Z,23.16
2023-07-07T23:27:30.299Z,23.15
2023-07-07T23:30:38.810Z,23.12
2023-07-07T23:33:41.590Z,23.08
2023-07-07T23:36:44.850Z,23.07
2023-07-07T23:39:47.254Z,23.06
2023-07-07T23:42:50.576Z,23.01
2023-07-07T23:45:53.229Z,23.00
2023-07-07T23:48:56.401Z,23.00
2023-07-07T23:51:58.905Z,23.01
2023-07-07T23:55:01.996Z,23.02
2023-07-07T23:58:04.482Z,22.99
